Time;durP1;ratioP1;P1;durP2;ratioP2;P2;SDS_P1;SDS_P2;PMS_P1;PMS_P2;Temp;Humidity;BMP_temperature;BMP_pressure;BME280_temperature;BME280_humidity;BME280_pressure;Samples;Min_cycle;Max_cycle;Signal;HPM_P1;HPM_P2
2021/08/06 00:00:08;;;;;;;;;;;;;;;22.76;61.04;99383.63;2082510;28;20273;-53
2021/08/06 00:01:09;;;;;;;;;;;;;;;22.74;60.96;99392.09;2082167;28;19916;-51
2021/08/06 00:02:09;;;;;;;;;;;;;;;22.75;60.92;99393.78;2084701;28;19920;-54
2021/08/06 00:03:09;;;;;;;;;;;;;;;22.75;60.97;99393.78;2085068;28;19942;-53
2021/08/06 00:04:10;;;;;;;;;;;;;;;22.75;61.04;99382.78;2085036;28;19916;-54
2021/08/06 00:05:10;;;;;;;;;;;;;;;22.75;61.02;99384.69;2086283;28;20417;-51
2021/08/06 00:06:10;;;;;;;;;;;;;;;22.75;60.90;99387.44;2081166;28;20119;-54
2021/08/06 00:07:14;;;;;;;;;;;;;;;22.75;60.83;99392.94;2084737;28;19912;-53
2021/08/06 00:08:14;;;;;;;;;;;;;;;22.75;60.85;99388.28;2085964;28;19948;-54
2021/08/06 00:09:14;;;;;;;;;;;;;;;22.76;60.89;99383.63;2083162;28;19952;-53
2021/08/06 00:10:15;;;;;;;;;;;;;;;22.76;60.97;99391.88;2076877;28;20416;-53
2021/08/06 00:11:15;;;;;;;;;;;;;;;22.76;60.91;99389.13;2083845;28;19921;-53
2021/08/06 00:12:15;;;;;;;;;;;;;;;22.75;60.95;99392.94;2084676;28;19967;-53
2021/08/06 00:13:15;;;;;;;;;;;;;;;22.75;60.77;99395.69;2084534;28;19924;-51
2021/08/06 00:14:16;;;;;;;;;;;;;;;22.75;60.87;99398.44;2083611;28;20655;-51
2021/08/06 00:15:16;;;;;;;;;;;;;;;22.75;60.76;99395.69;2085164;28;19909;-54
2021/08/06 00:16:17;;;;;;;;;;;;;;;22.74;60.82;99397.59;2080769;28;19917;-50
2021/08/06 00:17:17;;;;;;;;;;;;;;;22.73;60.83;99390.38;2085313;28;19980;-51
2021/08/06 00:18:18;;;;;;;;;;;;;;;22.74;60.90;99386.59;2084557;28;19916;-53
2021/08/06 00:19:18;;;;;;;;;;;;;;;22.73;60.97;99389.53;2077740;28;20299;-53
2021/08/06 00:20:19;;;;;;;;;;;;;;;22.74;60.78;99385.75;2084255;28;19917;-53
2021/08/06 00:21:19;;;;;;;;;;;;;;;22.74;60.83;99392.09;2083646;28;20397;-54
2021/08/06 00:22:20;;;;;;;;;;;;;;;22.74;60.91;99391.25;2084374;28;19966;-53
2021/08/06 00:23:21;;;;;;;;;;;;;;;22.74;60.80;99386.59;2083879;28;20330;-52
2021/08/06 00:24:21;;;;;;;;;;;;;;;22.76;60.90;99380.88;2086019;28;19951;-52
2021/08/06 00:25:22;;;;;;;;;;;;;;;22.75;60.98;99384.69;2082724;28;19955;-50
2021/08/06 00:26:22;;;;;;;;;;;;;;;22.76;60.86;99378.16;2084750;28;19972;-52
2021/08/06 00:27:22;;;;;;;;;;;;;;;22.75;60.71;99387.44;2085761;28;19917;-52
2021/08/06 00:28:23;;;;;;;;;;;;;;;22.74;61.00;99383.00;2083776;28;20534;-52
2021/08/06 00:29:23;;;;;;;;;;;;;;;22.75;60.75;99387.44;2077623;28;19921;-53
2021/08/06 00:30:23;;;;;;;;;;;;;;;22.73;60.81;99382.13;2084112;28;19919;-53
2021/08/06 00:31:24;;;;;;;;;;;;;;;22.74;60.77;99385.75;2083178;28;19920;-54
2021/08/06 00:32:24;;;;;;;;;;;;;;;22.73;60.83;99378.53;2083708;28;20378;-52
2021/08/06 00:33:24;;;;;;;;;;;;;;;22.74;60.82;99383.00;2083143;28;19916;-50
2021/08/06 00:34:24;;;;;;;;;;;;;;;22.73;60.83;99379.38;2086409;28;20274;-52
2021/08/06 00:35:25;;;;;;;;;;;;;;;22.74;60.75;99383.00;2083742;28;20232;-43
2021/08/06 00:36:25;;;;;;;;;;;;;;;22.73;60.92;99375.78;2084295;28;19920;-44
2021/08/06 00:37:25;;;;;;;;;;;;;;;22.72;60.93;99377.69;2083983;28;19916;-45
2021/08/06 00:38:25;;;;;;;;;;;;;;;22.73;60.97;99378.53;2083390;28;19927;-43
2021/08/06 00:39:26;;;;;;;;;;;;;;;22.72;61.01;99377.69;2084745;28;20361;-44
2021/08/06 00:40:26;;;;;;;;;;;;;;;22.72;60.87;99383.19;2083774;28;19978;-44
2021/08/06 00:41:26;;;;;;;;;;;;;;;22.75;60.91;99385.53;2084373;28;19927;-45
2021/08/06 00:42:27;;;;;;;;;;;;;;;22.73;61.02;99384.03;2084823;28;19951;-43
2021/08/06 00:43:27;;;;;;;;;;;;;;;22.72;60.95;99371.34;2083532;28;19925;-44
2021/08/06 00:44:27;;;;;;;;;;;;;;;22.73;60.87;99384.03;2079714;28;19921;-44
2021/08/06 00:45:28;;;;;;;;;;;;;;;22.72;61.03;99376.84;2080425;28;19909;-45
2021/08/06 00:46:29;;;;;;;;;;;;;;;22.72;61.01;99374.94;2078057;28;19924;-44
2021/08/06 00:47:29;;;;;;;;;;;;;;;22.71;60.97;99373.25;2079405;28;19920;-44
2021/08/06 00:48:29;;;;;;;;;;;;;;;22.72;61.05;99371.34;2078883;28;19925;-44
2021/08/06 00:49:30;;;;;;;;;;;;;;;22.71;61.03;99375.13;2085058;28;20311;-43
2021/08/06 00:50:32;;;;;;;;;;;;;;;22.72;61.04;99368.59;2083714;28;19923;-44
2021/08/06 00:51:33;;;;;;;;;;;;;;;22.72;61.00;99376.84;2083645;28;19908;-45
2021/08/06 00:52:33;;;;;;;;;;;;;;;22.72;61.03;99377.69;2085939;28;20306;-45
2021/08/06 00:53:33;;;;;;;;;;;;;;;22.71;60.94;99375.13;2081486;28;21249;-44
2021/08/06 00:54:34;;;;;;;;;;;;;;;22.72;61.02;99377.69;2085638;28;20326;-44
2021/08/06 00:55:34;;;;;;;;;;;;;;;22.72;60.86;99376.84;2083809;28;19916;-46
2021/08/06 00:56:35;;;;;;;;;;;;;;;22.73;60.88;99378.53;2083980;28;19948;-43
2021/08/06 00:57:35;;;;;;;;;;;;;;;22.73;61.01;99384.03;2084833;28;19960;-43
2021/08/06 00:58:40;;;;;;;;;;;;;;;22.73;61.02;99389.53;2084961;28;19928;-44
2021/08/06 00:59:40;;;;;;;;;;;;;;;22.73;60.90;99390.38;2085913;28;20681;-44
2021/08/06 01:00:41;;;;;;;;;;;;;;;22.73;61.01;99395.00;2082775;28;20043;-43
2021/08/06 01:01:45;;;;;;;;;;;;;;;22.73;60.96;99400.50;2086531;28;20572;-44
2021/08/06 01:02:51;;;;;;;;;;;;;;;22.72;60.89;99398.81;2084432;28;19904;-44
2021/08/06 01:04:03;;;;;;;;;;;;;;;22.72;60.93;99401.56;2083684;28;19974;-44
2021/08/06 01:05:08;;;;;;;;;;;;;;;22.72;60.89;99391.41;2080172;28;19908;-43
2021/08/06 01:06:14;;;;;;;;;;;;;;;22.72;61.02;99399.66;2084256;28;20003;-43
2021/08/06 01:07:19;;;;;;;;;;;;;;;22.72;60.89;99401.56;2084565;28;19940;-43
2021/08/06 01:08:26;;;;;;;;;;;;;;;22.71;60.92;99403.47;2082719;28;20294;-44
2021/08/06 01:09:32;;;;;;;;;;;;;;;22.72;60.87;99407.06;2083722;28;19925;-44
2021/08/06 01:10:36;;;;;;;;;;;;;;;22.72;61.05;99404.31;2084730;28;20066;-44
2021/08/06 01:11:39;;;;;;;;;;;;;;;22.73;61.04;99408.75;2082909;28;19913;-43
2021/08/06 01:12:55;;;;;;;;;;;;;;;22.72;60.86;99404.31;2082434;28;19916;-44
2021/08/06 01:13:56;;;;;;;;;;;;;;;22.71;60.88;99408.09;2084203;28;19931;-44
2021/08/06 01:14:59;;;;;;;;;;;;;;;22.71;60.98;99405.34;2085077;28;19947;-44
2021/08/06 01:16:02;;;;;;;;;;;;;;;22.71;60.91;99402.59;2084536;28;20213;-44
2021/08/06 01:17:03;;;;;;;;;;;;;;;22.72;61.09;99404.31;2083588;28;20311;-44
2021/08/06 01:18:05;;;;;;;;;;;;;;;22.72;61.04;99407.06;2084925;28;19923;-45
2021/08/06 01:19:23;;;;;;;;;;;;;;;22.69;61.12;99403.66;2083141;28;19920;-44
2021/08/06 01:20:25;;;;;;;;;;;;;;;22.71;61.02;99408.97;2085625;28;19920;-43
2021/08/06 01:21:27;;;;;;;;;;;;;;;22.71;61.13;99408.09;2089244;28;20344;-46
2021/08/06 01:22:33;;;;;;;;;;;;;;;22.72;60.92;99405.16;2083110;28;19978;-44
2021/08/06 01:23:34;;;;;;;;;;;;;;;22.71;60.87;99408.09;2083459;28;19932;-44
2021/08/06 01:24:35;;;;;;;;;;;;;;;22.69;60.98;99403.66;2084888;28;20019;-43
2021/08/06 01:25:45;;;;;;;;;;;;;;;22.71;60.98;99399.84;2084915;28;19939;-44
2021/08/06 01:26:46;;;;;;;;;;;;;;;22.69;60.92;99395.41;2084444;28;19916;-43
2021/08/06 01:27:47;;;;;;;;;;;;;;;22.71;61.01;99402.59;2084258;28;19915;-44
2021/08/06 01:28:48;;;;;;;;;;;;;;;22.71;60.94;99397.09;2081199;28;19960;-44
2021/08/06 01:29:48;;;;;;;;;;;;;;;22.71;61.04;99391.59;2080908;28;19932;-43
2021/08/06 01:30:49;;;;;;;;;;;;;;;22.69;60.89;99386.31;2083846;28;19928;-44
2021/08/06 01:31:50;;;;;;;;;;;;;;;22.69;60.91;99384.41;2081008;28;19917;-45
2021/08/06 01:32:53;;;;;;;;;;;;;;;22.71;61.03;99386.09;2080548;28;19916;-44
2021/08/06 01:33:53;;;;;;;;;;;;;;;22.71;60.97;99391.59;2085978;28;19916;-44
2021/08/06 01:34:54;;;;;;;;;;;;;;;22.71;60.89;99394.34;2083301;28;19909;-44
2021/08/06 01:35:54;;;;;;;;;;;;;;;22.69;60.95;99392.66;2081035;28;21563;-44
2021/08/06 01:36:54;;;;;;;;;;;;;;;22.71;61.04;99386.97;2084516;28;20385;-44
2021/08/06 01:37:55;;;;;;;;;;;;;;;22.70;60.96;99393.50;2084313;28;19955;-44
2021/08/06 01:38:55;;;;;;;;;;;;;;;22.71;60.89;99389.72;2084418;28;20302;-45
2021/08/06 01:39:56;;;;;;;;;;;;;;;22.69;61.21;99389.91;2083800;28;19928;-45
2021/08/06 01:41:05;;;;;;;;;;;;;;;22.69;61.04;99384.41;2084613;28;19928;-43
2021/08/06 01:42:20;;;;;;;;;;;;;;;22.69;61.02;99384.41;2081350;28;19928;-43
2021/08/06 01:43:25;;;;;;;;;;;;;;;22.69;61.10;99384.41;2085035;28;19923;-44
2021/08/06 01:44:38;;;;;;;;;;;;;;;22.71;60.94;99383.34;2084087;28;19927;-44
2021/08/06 01:45:42;;;;;;;;;;;;;;;22.68;61.19;99388.22;2082752;28;19998;-44
2021/08/06 01:46:50;;;;;;;;;;;;;;;22.68;61.11;99388.22;2083807;28;20050;-44
2021/08/06 01:47:51;;;;;;;;;;;;;;;22.72;60.93;99390.59;2083199;28;19921;-45
2021/08/06 01:48:53;;;;;;;;;;;;;;;22.71;60.86;99391.59;2082770;28;19909;-44
2021/08/06 01:50:05;;;;;;;;;;;;;;;22.69;60.92;99395.41;2083765;28;20019;-44
2021/08/06 01:51:07;;;;;;;;;;;;;;;22.68;61.06;99385.47;2091310;28;19923;-43
2021/08/06 01:52:14;;;;;;;;;;;;;;;22.69;61.05;99389.91;2090219;28;19915;-43
2021/08/06 01:53:17;;;;;;;;;;;;;;;22.68;60.98;99381.84;2083924;28;19921;-44
2021/08/06 01:54:19;;;;;;;;;;;;;;;22.69;60.91;99386.31;2080175;28;20018;-43
2021/08/06 01:55:20;;;;;;;;;;;;;;;22.69;61.07;99384.41;2084257;28;19927;-45
2021/08/06 01:56:21;;;;;;;;;;;;;;;22.68;61.05;99381.84;2083090;28;19995;-44
2021/08/06 01:57:23;;;;;;;;;;;;;;;22.69;61.01;99383.56;2085125;28;19967;-43
2021/08/06 01:58:24;;;;;;;;;;;;;;;22.68;61.11;99377.22;2082292;28;19920;-44
2021/08/06 01:59:25;;;;;;;;;;;;;;;22.69;61.11;99384.41;2083014;28;19932;-44
2021/08/06 02:00:26;;;;;;;;;;;;;;;22.68;61.06;99385.47;2084421;28;19912;-45
2021/08/06 02:01:27;;;;;;;;;;;;;;;22.69;61.17;99392.66;2084181;28;19962;-43
2021/08/06 02:02:28;;;;;;;;;;;;;;;22.68;61.01;99388.22;2085733;28;19908;-44
2021/08/06 02:03:28;;;;;;;;;;;;;;;22.68;61.04;99387.34;2078545;28;19920;-45
2021/08/06 02:04:29;;;;;;;;;;;;;;;22.67;60.98;99389.25;2085498;28;19917;-43
2021/08/06 02:05:30;;;;;;;;;;;;;;;22.68;61.07;99392.84;2084044;28;19954;-46
2021/08/06 02:06:30;;;;;;;;;;;;;;;22.68;60.98;99388.22;2084728;28;20602;-45
2021/08/06 02:07:30;;;;;;;;;;;;;;;22.68;61.05;99393.72;2084330;28;20439;-44
2021/08/06 02:08:31;;;;;;;;;;;;;;;22.68;61.09;99388.22;2079109;28;20486;-45
2021/08/06 02:09:31;;;;;;;;;;;;;;;22.69;61.11;99394.56;2080111;28;19971;-44
2021/08/06 02:10:33;;;;;;;;;;;;;;;22.68;61.09;99388.22;2083315;28;19958;-44
2021/08/06 02:11:33;;;;;;;;;;;;;;;22.68;61.07;99399.22;2084169;28;19916;-44
2021/08/06 02:12:34;;;;;;;;;;;;;;;22.68;60.99;99393.72;2084391;28;19916;-44
2021/08/06 02:13:35;;;;;;;;;;;;;;;22.68;61.13;99388.22;2081547;28;20365;-44
2021/08/06 02:14:35;;;;;;;;;;;;;;;22.69;61.14;99389.06;2084475;28;20055;-44
2021/08/06 02:15:36;;;;;;;;;;;;;;;22.67;61.02;99391.16;2083416;28;19916;-44
2021/08/06 02:16:37;;;;;;;;;;;;;;;22.67;61.10;99391.16;2083941;28;19920;-44
2021/08/06 02:17:38;;;;;;;;;;;;;;;22.67;61.22;99397.50;2084760;28;19916;-45
2021/08/06 02:18:38;;;;;;;;;;;;;;;22.68;61.08;99388.22;2083448;28;19971;-44
2021/08/06 02:19:39;;;;;;;;;;;;;;;22.68;61.05;99395.59;2080947;28;19916;-43
2021/08/06 02:20:40;;;;;;;;;;;;;;;22.67;61.05;99392.00;2085307;28;19916;-43
2021/08/06 02:21:41;;;;;;;;;;;;;;;22.67;61.24;99392.00;2082880;28;19921;-43
2021/08/06 02:22:43;;;;;;;;;;;;;;;22.67;60.98;99396.63;2085169;28;19920;-44
2021/08/06 02:23:46;;;;;;;;;;;;;;;22.69;61.22;99395.41;2084684;28;19916;-44
2021/08/06 02:24:47;;;;;;;;;;;;;;;22.67;61.05;99397.50;2084103;28;19982;-43
2021/08/06 02:25:48;;;;;;;;;;;;;;;22.69;61.03;99402.81;2085121;28;19962;-43
2021/08/06 02:26:49;;;;;;;;;;;;;;;22.69;60.89;99400.06;2087530;28;19917;-44
2021/08/06 02:27:51;;;;;;;;;;;;;;;22.68;60.97;99398.34;2086173;28;20379;-44
2021/08/06 02:28:51;;;;;;;;;;;;;;;22.68;60.90;99395.59;2082494;28;20374;-45
2021/08/06 02:29:53;;;;;;;;;;;;;;;22.68;61.01;99406.56;2084066;28;20019;-43
2021/08/06 02:30:54;;;;;;;;;;;;;;;22.68;60.92;99410.19;2084145;28;20038;-44
2021/08/06 02:31:55;;;;;;;;;;;;;;;22.68;61.02;99403.81;2084387;28;20126;-47
2021/08/06 02:32:56;;;;;;;;;;;;;;;22.68;61.16;99401.06;2084510;28;20438;-46
2021/08/06 02:33:57;;;;;;;;;;;;;;;22.67;61.24;99397.50;2083969;28;19916;-46
2021/08/06 02:34:57;;;;;;;;;;;;;;;22.66;60.99;99395.78;2083830;28;19924;-44
2021/08/06 02:35:58;;;;;;;;;;;;;;;22.66;61.13;99395.78;2078686;28;19947;-45
2021/08/06 02:36:59;;;;;;;;;;;;;;;22.66;61.21;99401.28;2082850;28;20001;-46
2021/08/06 02:37:59;;;;;;;;;;;;;;;22.67;61.13;99402.97;2083471;28;20247;-47
2021/08/06 02:39:00;;;;;;;;;;;;;;;22.66;61.14;99401.28;2081058;28;19989;-45
2021/08/06 02:40:00;;;;;;;;;;;;;;;22.65;60.95;99399.56;2082837;28;19931;-45
2021/08/06 02:41:01;;;;;;;;;;;;;;;22.67;61.15;99402.13;2081611;28;19941;-45
2021/08/06 02:42:02;;;;;;;;;;;;;;;22.66;60.99;99395.78;2083766;28;20259;-44
2021/08/06 02:43:05;;;;;;;;;;;;;;;22.66;61.18;99398.53;2084721;28;19913;-45
2021/08/06 02:44:07;;;;;;;;;;;;;;;22.66;61.06;99404.03;2082472;28;20007;-44
2021/08/06 02:45:07;;;;;;;;;;;;;;;22.66;61.23;99400.41;2084351;28;19945;-44
2021/08/06 02:46:08;;;;;;;;;;;;;;;22.66;61.06;99401.28;2084375;28;19939;-44
2021/08/06 02:47:09;;;;;;;;;;;;;;;22.66;61.06;99404.03;2089735;28;19922;-45
2021/08/06 02:48:09;;;;;;;;;;;;;;;22.66;61.19;99400.41;2082122;28;19916;-45
2021/08/06 02:49:10;;;;;;;;;;;;;;;22.66;61.10;99404.03;2081862;28;20345;-43
2021/08/06 02:50:11;;;;;;;;;;;;;;;22.65;61.10;99410.56;2086151;28;20417;-45
2021/08/06 02:51:11;;;;;;;;;;;;;;;22.65;61.10;99410.56;2084691;28;20007;-44
2021/08/06 02:52:12;;;;;;;;;;;;;;;22.66;61.16;99404.03;2082007;28;19913;-46
2021/08/06 02:53:12;;;;;;;;;;;;;;;22.68;61.14;99401.06;2084472;28;19917;-44
2021/08/06 02:54:13;;;;;;;;;;;;;;;22.68;61.13;99403.81;2087426;28;19948;-44
2021/08/06 02:55:13;;;;;;;;;;;;;;;22.66;61.10;99406.78;2084651;28;19917;-43
2021/08/06 02:56:13;;;;;;;;;;;;;;;22.67;61.06;99399.38;2087067;28;19924;-45
2021/08/06 02:57:14;;;;;;;;;;;;;;;22.66;60.88;99401.28;2080781;28;19924;-44
2021/08/06 02:58:14;;;;;;;;;;;;;;;22.65;61.03;99396.81;2086899;28;20315;-44
2021/08/06 02:59:14;;;;;;;;;;;;;;;22.66;60.93;99400.41;2084627;28;19940;-44
2021/08/06 03:00:15;;;;;;;;;;;;;;;22.66;61.20;99395.78;2081664;28;20270;-45
2021/08/06 03:01:15;;;;;;;;;;;;;;;22.67;60.94;99397.50;2085116;28;19912;-44
2021/08/06 03:02:16;;;;;;;;;;;;;;;22.65;61.21;99402.31;2087081;28;19915;-43
2021/08/06 03:03:16;;;;;;;;;;;;;;;22.65;61.22;99394.06;2084483;28;19920;-44
2021/08/06 03:04:17;;;;;;;;;;;;;;;22.66;61.12;99398.53;2083460;28;19916;-45
2021/08/06 03:05:17;;;;;;;;;;;;;;;22.65;61.15;99399.56;2084494;28;20294;-44
2021/08/06 03:06:18;;;;;;;;;;;;;;;22.66;61.30;99393.03;2085198;28;19997;-44
2021/08/06 03:07:19;;;;;;;;;;;;;;;22.66;61.17;99394.91;2084348;28;20516;-45
2021/08/06 03:08:19;;;;;;;;;;;;;;;22.65;60.98;99396.81;2083591;28;19916;-45
2021/08/06 03:09:19;;;;;;;;;;;;;;;22.66;60.96;99393.03;2079903;28;20223;-45
2021/08/06 03:10:20;;;;;;;;;;;;;;;22.66;60.99;99398.53;2084219;28;20873;-43
2021/08/06 03:11:20;;;;;;;;;;;;;;;22.66;61.24;99401.28;2086163;28;20338;-45
2021/08/06 03:12:20;;;;;;;;;;;;;;;22.66;61.03;99403.16;2085644;28;19931;-46
2021/08/06 03:13:21;;;;;;;;;;;;;;;22.65;60.99;99398.72;2085758;28;19951;-44
2021/08/06 03:14:21;;;;;;;;;;;;;;;22.65;61.09;99398.72;2085215;28;20505;-44
2021/08/06 03:15:21;;;;;;;;;;;;;;;22.64;61.21;99397.88;2084653;28;19923;-44
2021/08/06 03:16:22;;;;;;;;;;;;;;;22.65;61.22;99396.81;2087069;28;19920;-44
2021/08/06 03:17:22;;;;;;;;;;;;;;;22.65;61.20;99390.47;2085019;28;19924;-45
2021/08/06 03:18:22;;;;;;;;;;;;;;;22.65;61.08;99396.81;2086626;28;19916;-45
2021/08/06 03:19:23;;;;;;;;;;;;;;;22.65;61.22;99393.22;2085215;28;20704;-44
2021/08/06 03:20:23;;;;;;;;;;;;;;;22.64;61.17;99389.63;2082766;28;19917;-45
2021/08/06 03:21:23;;;;;;;;;;;;;;;22.63;61.15;99390.66;2084439;28;20488;-44
2021/08/06 03:22:24;;;;;;;;;;;;;;;22.65;61.17;99393.22;2083833;28;19928;-44
2021/08/06 03:23:24;;;;;;;;;;;;;;;22.65;61.03;99394.06;2084982;28;19917;-46
2021/08/06 03:24:24;;;;;;;;;;;;;;;22.65;61.01;99394.06;2085588;28;19942;-45
2021/08/06 03:25:25;;;;;;;;;;;;;;;22.65;61.20;99393.22;2083057;28;19923;-45
2021/08/06 03:26:25;;;;;;;;;;;;;;;22.64;61.15;99384.13;2085196;28;20019;-46
2021/08/06 03:27:25;;;;;;;;;;;;;;;22.64;61.17;99386.03;2085553;28;19916;-44
2021/08/06 03:28:26;;;;;;;;;;;;;;;22.65;61.06;99394.06;2084572;28;20509;-44
2021/08/06 03:29:26;;;;;;;;;;;;;;;22.64;61.23;99386.03;2085295;28;20562;-45
2021/08/06 03:30:26;;;;;;;;;;;;;;;22.64;61.08;99384.13;2084723;28;20386;-45
2021/08/06 03:31:27;;;;;;;;;;;;;;;22.65;61.00;99388.56;2084156;28;19943;-44
2021/08/06 03:32:27;;;;;;;;;;;;;;;22.65;61.10;99384.97;2085750;28;19925;-43
2021/08/06 03:33:27;;;;;;;;;;;;;;;22.64;61.02;99384.13;2085264;28;19941;-43
2021/08/06 03:34:28;;;;;;;;;;;;;;;22.66;61.01;99384.81;2083530;28;20238;-43
2021/08/06 03:35:28;;;;;;;;;;;;;;;22.66;61.10;99383.94;2084091;28;20197;-44
2021/08/06 03:36:28;;;;;;;;;;;;;;;22.65;61.19;99383.09;2083933;28;19935;-43
2021/08/06 03:37:29;;;;;;;;;;;;;;;22.66;60.97;99379.31;2084717;28;19981;-43
2021/08/06 03:38:30;;;;;;;;;;;;;;;22.64;61.17;99384.13;2086350;28;20300;-44
2021/08/06 03:39:30;;;;;;;;;;;;;;;22.65;61.15;99394.06;2084736;28;19983;-45
2021/08/06 03:40:30;;;;;;;;;;;;;;;22.65;61.24;99388.56;2084895;28;19920;-44
2021/08/06 03:41:31;;;;;;;;;;;;;;;22.65;61.07;99385.84;2084171;28;20060;-44
2021/08/06 03:42:31;;;;;;;;;;;;;;;22.65;61.06;99388.56;2082699;28;19927;-43
2021/08/06 03:43:32;;;;;;;;;;;;;;;22.64;61.04;99392.38;2084446;28;19921;-44
2021/08/06 03:44:32;;;;;;;;;;;;;;;22.64;61.02;99395.13;2084277;28;20003;-43
2021/08/06 03:45:33;;;;;;;;;;;;;;;22.64;61.21;99386.88;2084206;28;19916;-45
2021/08/06 03:46:33;;;;;;;;;;;;;;;22.65;61.04;99394.06;2083979;28;19920;-44
2021/08/06 03:47:34;;;;;;;;;;;;;;;22.66;61.21;99392.16;2084942;28;19905;-44
2021/08/06 03:48:34;;;;;;;;;;;;;;;22.66;61.00;99390.31;2081998;28;20664;-44
2021/08/06 03:49:34;;;;;;;;;;;;;;;22.65;61.01;99388.56;2085187;28;20436;-44
2021/08/06 03:50:35;;;;;;;;;;;;;;;22.65;61.19;99395.97;2084686;28;20378;-44
2021/08/06 03:51:35;;;;;;;;;;;;;;;22.64;61.03;99392.38;2084791;28;19921;-44
2021/08/06 03:52:36;;;;;;;;;;;;;;;22.64;61.21;99392.38;2084884;28;19916;-44
2021/08/06 03:53:36;;;;;;;;;;;;;;;22.64;61.15;99388.78;2085230;28;20751;-44
2021/08/06 03:54:36;;;;;;;;;;;;;;;22.64;61.05;99392.38;2084683;28;19975;-44
2021/08/06 03:55:37;;;;;;;;;;;;;;;22.64;61.24;99392.38;2085746;28;19913;-44
2021/08/06 03:56:37;;;;;;;;;;;;;;;22.66;60.97;99390.31;2084843;28;19943;-44
2021/08/06 03:57:47;;;;;;;;;;;;;;;22.65;61.04;99394.06;2085159;28;19938;-45
2021/08/06 03:58:47;;;;;;;;;;;;;;;22.65;61.03;99390.47;2083769;28;19917;-44
2021/08/06 03:59:48;;;;;;;;;;;;;;;22.64;61.10;99392.38;2085203;28;20308;-45
2021/08/06 04:00:48;;;;;;;;;;;;;;;22.64;61.16;99386.88;2084619;28;20252;-45
2021/08/06 04:01:48;;;;;;;;;;;;;;;22.65;61.21;99388.56;2084766;28;20017;-45
2021/08/06 04:02:49;;;;;;;;;;;;;;;22.64;61.20;99392.38;2083777;28;19960;-44
2021/08/06 04:03:49;;;;;;;;;;;;;;;22.65;61.02;99383.09;2086163;28;19921;-44
2021/08/06 04:04:49;;;;;;;;;;;;;;;22.64;61.04;99386.03;2083863;28;19951;-46
2021/08/06 04:05:50;;;;;;;;;;;;;;;22.63;61.23;99379.66;2082522;28;20490;-43
2021/08/06 04:06:50;;;;;;;;;;;;;;;22.64;61.02;99391.53;2083908;28;20463;-44
2021/08/06 04:07:50;;;;;;;;;;;;;;;22.64;61.07;99380.53;2086669;28;19917;-44
2021/08/06 04:08:51;;;;;;;;;;;;;;;22.64;61.10;99380.53;2084072;28;19920;-45
2021/08/06 04:09:51;;;;;;;;;;;;;;;22.64;61.00;99386.03;2085595;28;20246;-44
2021/08/06 04:10:51;;;;;;;;;;;;;;;22.64;60.99;99391.53;2086397;28;19920;-46
2021/08/06 04:11:52;;;;;;;;;;;;;;;22.63;61.01;99379.66;2084174;28;19912;-44
2021/08/06 04:12:52;;;;;;;;;;;;;;;22.64;61.00;99389.63;2085644;28;19924;-44
2021/08/06 04:13:52;;;;;;;;;;;;;;;22.64;61.02;99391.53;2083732;28;19916;-44
2021/08/06 04:14:53;;;;;;;;;;;;;;;22.63;61.01;99385.16;2084686;28;19923;-44
2021/08/06 04:15:53;;;;;;;;;;;;;;;22.64;61.21;99386.88;2083533;28;20225;-45
2021/08/06 04:16:53;;;;;;;;;;;;;;;22.63;60.96;99390.66;2085662;28;20337;-45
2021/08/06 04:17:54;;;;;;;;;;;;;;;22.62;61.10;99391.72;2084703;28;19924;-44
2021/08/06 04:18:54;;;;;;;;;;;;;;;22.64;61.08;99389.63;2082988;28;20490;-43
2021/08/06 04:19:54;;;;;;;;;;;;;;;22.63;61.16;99385.16;2084774;28;19936;-44
2021/08/06 04:20:57;;;;;;;;;;;;;;;22.63;61.08;99389.81;2086279;28;20361;-44
2021/08/06 04:21:57;;;;;;;;;;;;;;;22.63;61.10;99390.66;2084439;28;19912;-44
2021/08/06 04:22:57;;;;;;;;;;;;;;;22.61;61.18;99392.78;2084974;28;19912;-46
2021/08/06 04:23:58;;;;;;;;;;;;;;;22.63;61.01;99387.06;2086106;28;20011;-44
2021/08/06 04:24:58;;;;;;;;;;;;;;;22.63;61.20;99396.16;2084352;28;19916;-44
2021/08/06 04:25:58;;;;;;;;;;;;;;;22.62;61.11;99394.47;2085710;28;19920;-44
2021/08/06 04:26:59;;;;;;;;;;;;;;;22.62;61.10;99383.47;2081305;28;19920;-44
2021/08/06 04:27:59;;;;;;;;;;;;;;;22.63;61.16;99384.31;2081858;28;20219;-43
2021/08/06 04:28:59;;;;;;;;;;;;;;;22.62;61.11;99386.22;2086487;28;19940;-45
2021/08/06 04:30:00;;;;;;;;;;;;;;;22.60;61.11;99385.56;2083714;28;19924;-43
2021/08/06 04:31:02;;;;;;;;;;;;;;;22.63;61.17;99389.81;2085720;28;19923;-44
2021/08/06 04:32:02;;;;;;;;;;;;;;;22.64;61.04;99391.53;2083847;28;19916;-43
2021/08/06 04:33:03;;;;;;;;;;;;;;;22.63;61.03;99390.66;2083747;28;20235;-44
2021/08/06 04:34:03;;;;;;;;;;;;;;;22.63;61.16;99384.31;2084888;28;19917;-46
2021/08/06 04:35:04;;;;;;;;;;;;;;;22.63;61.01;99389.81;2084183;28;20226;-44
2021/08/06 04:36:05;;;;;;;;;;;;;;;22.62;61.06;99388.97;2082443;28;19948;-44
2021/08/06 04:37:05;;;;;;;;;;;;;;;22.63;61.29;99387.06;2086427;28;19908;-46
2021/08/06 04:38:05;;;;;;;;;;;;;;;22.61;61.18;99390.03;2083254;28;20196;-45
2021/08/06 04:39:06;;;;;;;;;;;;;;;22.63;61.13;99387.06;2085856;28;19963;-44
2021/08/06 04:40:06;;;;;;;;;;;;;;;22.62;61.09;99386.22;2085495;28;19942;-45
2021/08/06 04:41:07;;;;;;;;;;;;;;;22.62;61.13;99393.63;2084883;28;20266;-44
2021/08/06 04:42:08;;;;;;;;;;;;;;;22.63;61.19;99387.91;2083439;28;19917;-43
2021/08/06 04:43:09;;;;;;;;;;;;;;;22.63;60.96;99390.66;2085815;28;20016;-44
2021/08/06 04:44:09;;;;;;;;;;;;;;;22.62;61.27;99390.88;2085989;28;19920;-44
2021/08/06 04:45:10;;;;;;;;;;;;;;;22.63;61.17;99389.81;2084464;28;19920;-45
2021/08/06 04:46:12;;;;;;;;;;;;;;;22.62;60.99;99391.72;2084240;28;19969;-44
2021/08/06 04:47:12;;;;;;;;;;;;;;;22.63;61.00;99389.81;2085521;28;19944;-43
2021/08/06 04:48:15;;;;;;;;;;;;;;;22.62;61.07;99391.72;2084431;28;20435;-45
2021/08/06 04:49:16;;;;;;;;;;;;;;;22.63;61.21;99395.31;2084691;28;19970;-43
2021/08/06 04:50:17;;;;;;;;;;;;;;;22.63;61.11;99396.16;2084415;28;20057;-44
2021/08/06 04:51:17;;;;;;;;;;;;;;;22.62;61.14;99388.97;2085176;28;19923;-43
2021/08/06 04:52:18;;;;;;;;;;;;;;;22.63;61.27;99390.66;2085175;28;19920;-43
2021/08/06 04:53:18;;;;;;;;;;;;;;;22.63;61.06;99389.81;2082514;28;19986;-44
2021/08/06 04:54:18;;;;;;;;;;;;;;;22.63;61.04;99390.66;2085449;28;20100;-43
2021/08/06 04:55:19;;;;;;;;;;;;;;;22.63;61.17;99395.31;2083062;28;19924;-44
2021/08/06 04:56:19;;;;;;;;;;;;;;;22.62;61.10;99397.22;2085581;28;19917;-45
2021/08/06 04:57:19;;;;;;;;;;;;;;;22.64;61.11;99395.13;2085062;28;19916;-44
2021/08/06 04:58:20;;;;;;;;;;;;;;;22.63;61.19;99393.41;2085297;28;19920;-45
2021/08/06 04:59:21;;;;;;;;;;;;;;;22.62;61.08;99390.88;2084505;28;20593;-43
2021/08/06 05:00:21;;;;;;;;;;;;;;;22.61;61.12;99394.63;2083933;28;19974;-45
2021/08/06 05:01:21;;;;;;;;;;;;;;;22.62;61.20;99393.63;2084502;28;19920;-44
2021/08/06 05:02:22;;;;;;;;;;;;;;;22.62;61.22;99390.88;2083459;28;20021;-44
2021/08/06 05:03:22;;;;;;;;;;;;;;;22.62;61.11;99394.47;2084290;28;19916;-45
2021/08/06 05:04:22;;;;;;;;;;;;;;;22.62;60.99;99394.47;2085845;28;21270;-45
2021/08/06 05:05:23;;;;;;;;;;;;;;;22.61;61.23;99392.78;2083552;28;19925;-46
2021/08/06 05:06:23;;;;;;;;;;;;;;;22.62;61.21;99394.47;2082809;28;19920;-43
2021/08/06 05:07:23;;;;;;;;;;;;;;;22.61;61.08;99387.28;2086344;28;19923;-45
2021/08/06 05:08:24;;;;;;;;;;;;;;;22.60;61.23;99396.53;2083325;28;20280;-44
2021/08/06 05:09:24;;;;;;;;;;;;;;;22.62;61.22;99394.47;2085252;28;20508;-44
2021/08/06 05:10:25;;;;;;;;;;;;;;;22.62;61.13;99399.94;2084326;28;20297;-43
2021/08/06 05:11:26;;;;;;;;;;;;;;;22.61;61.12;99391.88;2084085;28;19916;-48
2021/08/06 05:12:26;;;;;;;;;;;;;;;22.62;61.10;99386.22;2085467;28;19961;-45
2021/08/06 05:13:26;;;;;;;;;;;;;;;22.62;61.02;99393.63;2081257;28;20027;-43
2021/08/06 05:14:26;;;;;;;;;;;;;;;22.61;61.11;99386.41;2081603;28;19931;-45
2021/08/06 05:15:27;;;;;;;;;;;;;;;22.63;61.02;99390.66;2080654;28;20492;-44
2021/08/06 05:16:27;;;;;;;;;;;;;;;22.61;61.17;99392.78;2080298;28;20377;-46
2021/08/06 05:17:27;;;;;;;;;;;;;;;22.62;61.22;99394.47;2086309;28;20409;-45
2021/08/06 05:18:28;;;;;;;;;;;;;;;22.63;61.01;99396.16;2084364;28;19920;-46